PWSweather.com
Personal Weather Stations
Station Observations
PHMDWX
Perry Hall, MD 21236

Perry Hall, MD 21236

Lat: 39.418318, Lon: -76.490039

Elevation: 305

Station Type: Davis Vantage Pro

Latest ConditionsUpdated 10:30:17 PM EDT Sunday, Aug 2, 2015
Currently Today's Max Today's Min Today's Average
Temperature 71.1°F21.7°C 90.5°F32.5°C 63.4°F17.4°C 75.3°F24.1°C
Dew Point 67.4°F19.7°C 68.9°F20.5°C 55.5°F13.1°C 63.2°F17.3°C
Winds Calm Calm 3.8 mph NW6.1 kmh NW - 0.6 mph 1.0 kmh
Wind Gusts 1.0 mph1.6 kmh 6.0 mph9.7 kmh - -
Humidity 88% 97% 31% 71%
Pressure 29.86 in1011.2 mb 29.93 in1013.5 mb 29.85 in1010.8 mb -
Hour Temp Dew Point Humidity Winds Wind Gusts Pressure Precip Precip Rate Daily Precip Total
10:30 PM 71.1°F21.7°C 67.4°F19.7°C 88% Calm Calm 1.0 mph1.6 kmh 29.86 in1011.2 mb - 0.00 in0.0 mm 0.00 in0.0 mm
10:00 PM 72.1°F22.3°C 67.7°F19.8°C 86% Calm Calm -- 29.86 in1011.2 mb - 0.00 in0.0 mm 0.00 in0.0 mm
09:30 PM 73.2°F22.9°C 68.1°F20.1°C 84% Calm Calm -- 29.86 in1011.2 mb - 0.00 in0.0 mm 0.00 in0.0 mm
09:00 PM 75.1°F23.9°C 68.9°F20.5°C 81% Calm Calm -- 29.86 in1011.2 mb - 0.00 in0.0 mm 0.00 in0.0 mm
08:30 PM 77.7°F25.4°C 68.0°F20.0°C 72% Calm Calm -- 29.86 in1011.2 mb - 0.00 in0.0 mm 0.00 in0.0 mm
08:00 PM 80.7°F27.1°C 66.9°F19.4°C 63% Calm Calm -- 29.85 in1010.8 mb - 0.00 in0.0 mm 0.00 in0.0 mm
07:30 PM 81.2°F27.3°C 66.9°F19.4°C 62% Calm Calm -- 29.85 in1010.8 mb - 0.00 in0.0 mm 0.00 in0.0 mm
07:00 PM 83.8°F28.8°C 64.8°F18.2°C 53% 0.8 mph ENE1.3 kmh ENE 2.0 mph3.2 kmh 29.85 in1010.8 mb - 0.00 in0.0 mm 0.00 in0.0 mm
06:30 PM 85.8°F29.9°C 63.3°F17.4°C 47% 0.2 mph E0.3 kmh E -- 29.86 in1011.2 mb - 0.00 in0.0 mm 0.00 in0.0 mm
06:00 PM 86.2°F30.1°C 63.6°F17.6°C 47% Calm Calm -- 29.86 in1011.2 mb - 0.00 in0.0 mm 0.00 in0.0 mm
05:30 PM 88.9°F31.6°C 61.4°F16.3°C 40% 1.3 mph NW2.1 kmh NW 3.0 mph4.8 kmh 29.87 in1011.5 mb - 0.00 in0.0 mm 0.00 in0.0 mm
05:00 PM 90.5°F32.5°C 58.3°F14.6°C 34% 0.8 mph WSW1.3 kmh WSW 3.0 mph4.8 kmh 29.88 in1011.9 mb - 0.00 in0.0 mm 0.00 in0.0 mm
04:30 PM 89.7°F32.1°C 59.2°F15.1°C 36% 1.2 mph WSW1.9 kmh WSW 2.0 mph3.2 kmh 29.88 in1011.9 mb - 0.00 in0.0 mm 0.00 in0.0 mm
04:00 PM 89.8°F32.1°C 58.5°F14.7°C 35% 1.2 mph W1.9 kmh W 2.0 mph3.2 kmh 29.88 in1011.9 mb - 0.00 in0.0 mm 0.00 in0.0 mm
03:30 PM 90.3°F32.4°C 55.5°F13.1°C 31% 0.9 mph S1.4 kmh S 6.0 mph9.7 kmh 29.89 in1012.2 mb - 0.00 in0.0 mm 0.00 in0.0 mm
03:00 PM 88.6°F31.4°C 55.8°F13.2°C 33% 1.3 mph SW2.1 kmh SW 2.0 mph3.2 kmh 29.89 in1012.2 mb - 0.00 in0.0 mm 0.00 in0.0 mm
02:30 PM 85.3°F29.6°C 60.3°F15.7°C 43% 0.6 mph ENE1.0 kmh ENE 2.0 mph3.2 kmh 29.89 in1012.2 mb - 0.00 in0.0 mm 0.00 in0.0 mm
02:01 PM 83.8°F28.8°C 60.2°F15.7°C 45% 2.1 mph N3.4 kmh N 2.0 mph3.2 kmh 29.90 in1012.5 mb - 0.00 in0.0 mm 0.00 in0.0 mm
01:30 PM 84.3°F29.1°C 64.2°F17.9°C 51% 1.1 mph N1.8 kmh N 2.0 mph3.2 kmh 29.91 in1012.9 mb - 0.00 in0.0 mm 0.00 in0.0 mm
01:00 PM 86.1°F30.1°C 58.2°F14.6°C 39% 3.8 mph NW6.1 kmh NW 6.0 mph9.7 kmh 29.91 in1012.9 mb - 0.00 in0.0 mm 0.00 in0.0 mm
12:30 PM 84.1°F28.9°C 59.8°F15.4°C 44% 0.5 mph WNW0.8 kmh WNW 1.0 mph1.6 kmh 29.92 in1013.2 mb - 0.00 in0.0 mm 0.00 in0.0 mm
12:00 PM 82.2°F27.9°C 63.4°F17.4°C 53% 0.5 mph WNW0.8 kmh WNW 2.0 mph3.2 kmh 29.92 in1013.2 mb - 0.00 in0.0 mm 0.00 in0.0 mm
11:30 AM 81.1°F27.3°C 61.8°F16.6°C 52% 0.1 mph NW0.2 kmh NW -- 29.93 in1013.5 mb - 0.00 in0.0 mm 0.00 in0.0 mm
11:00 AM 79.6°F26.4°C 60.4°F15.8°C 52% Calm Calm -- 29.92 in1013.2 mb - 0.00 in0.0 mm 0.00 in0.0 mm
10:30 AM 78.3°F25.7°C 62.8°F17.1°C 59% 0.2 mph NW0.3 kmh NW 1.0 mph1.6 kmh 29.92 in1013.2 mb - 0.00 in0.0 mm 0.00 in0.0 mm
10:00 AM 76.3°F24.6°C 64.9°F18.3°C 68% 0.4 mph WSW0.6 kmh WSW 2.0 mph3.2 kmh 29.92 in1013.2 mb - 0.00 in0.0 mm 0.00 in0.0 mm
09:30 AM 74.2°F23.4°C 65.4°F18.6°C 74% 2.7 mph WSW4.3 kmh WSW 6.0 mph9.7 kmh 29.92 in1013.2 mb - 0.00 in0.0 mm 0.00 in0.0 mm
09:00 AM 71.6°F22.0°C 64.4°F18.0°C 78% 3.0 mph W4.8 kmh W 6.0 mph9.7 kmh 29.91 in1012.9 mb - 0.00 in0.0 mm 0.00 in0.0 mm
08:30 AM 68.4°F20.2°C 64.4°F18.0°C 87% 0.7 mph W1.1 kmh W 1.0 mph1.6 kmh 29.90 in1012.5 mb - 0.00 in0.0 mm 0.00 in0.0 mm
08:00 AM 66.3°F19.1°C 64.8°F18.2°C 95% 1.8 mph WNW2.9 kmh WNW 4.0 mph6.4 kmh 29.90 in1012.5 mb - 0.00 in0.0 mm 0.00 in0.0 mm
07:30 AM 64.8°F18.2°C 63.9°F17.7°C 97% 1.1 mph NW1.8 kmh NW 2.0 mph3.2 kmh 29.90 in1012.5 mb - 0.00 in0.0 mm 0.00 in0.0 mm
07:00 AM 63.9°F17.7°C 63.0°F17.2°C 97% 0.1 mph E0.2 kmh E 1.0 mph1.6 kmh 29.89 in1012.2 mb - 0.00 in0.0 mm 0.00 in0.0 mm
06:30 AM 63.4°F17.4°C 62.5°F16.9°C 97% 0.1 mph WNW0.2 kmh WNW 2.0 mph3.2 kmh 29.89 in1012.2 mb - 0.00 in0.0 mm 0.00 in0.0 mm
06:00 AM 63.6°F17.6°C 62.8°F17.1°C 97% 0.5 mph WNW0.8 kmh WNW 1.0 mph1.6 kmh 29.88 in1011.9 mb - 0.00 in0.0 mm 0.00 in0.0 mm
05:30 AM 63.9°F17.7°C 63.0°F17.2°C 97% Calm Calm -- 29.87 in1011.5 mb - 0.00 in0.0 mm 0.00 in0.0 mm
05:00 AM 64.3°F17.9°C 63.4°F17.4°C 97% 0.6 mph WNW1.0 kmh WNW 2.0 mph3.2 kmh 29.87 in1011.5 mb - 0.00 in0.0 mm 0.00 in0.0 mm
04:30 AM 64.5°F18.1°C 63.6°F17.6°C 97% Calm Calm 1.0 mph1.6 kmh 29.87 in1011.5 mb - 0.00 in0.0 mm 0.00 in0.0 mm
04:00 AM 64.3°F17.9°C 63.4°F17.4°C 97% Calm Calm -- 29.87 in1011.5 mb - 0.00 in0.0 mm 0.00 in0.0 mm
03:30 AM 64.7°F18.2°C 63.5°F17.5°C 96% Calm Calm -- 29.87 in1011.5 mb - 0.00 in0.0 mm 0.00 in0.0 mm
03:00 AM 65.0°F18.3°C 63.8°F17.7°C 96% Calm Calm 1.0 mph1.6 kmh 29.87 in1011.5 mb - 0.00 in0.0 mm 0.00 in0.0 mm
02:30 AM 64.8°F18.2°C 63.3°F17.4°C 95% Calm Calm -- 29.87 in1011.5 mb - 0.00 in0.0 mm 0.00 in0.0 mm
02:00 AM 65.5°F18.6°C 64.0°F17.8°C 95% Calm Calm -- 29.87 in1011.5 mb - 0.00 in0.0 mm 0.00 in0.0 mm
01:30 AM 65.8°F18.8°C 64.3°F17.9°C 95% Calm Calm -- 29.87 in1011.5 mb - 0.00 in0.0 mm 0.00 in0.0 mm
01:00 AM 66.1°F18.9°C 64.0°F17.8°C 93% Calm Calm -- 29.86 in1011.2 mb - 0.00 in0.0 mm 0.00 in0.0 mm
12:30 AM 67.1°F19.5°C 65.0°F18.3°C 93% Calm Calm -- 29.86 in1011.2 mb - 0.00 in0.0 mm 0.00 in0.0 mm
12:00 AM 67.9°F19.9°C 65.2°F18.4°C 91% Calm Calm -- 29.85 in1010.8 mb - 0.00 in0.0 mm 0.00 in0.0 mm